Welcome to our new website - Welkom op onze vernieuwde website - Bienvenue sur notre nouveau site web - Willkommen auf unserer neuen Website
Check our progress frequently. Prüfen Sie unsere Fortschritte regelmäßig. Consultez notre progression fréquemment. Komt u straks nog eens terug
Sneeuw/IJzel/Bevriezing van: 25-01-2021 09:00 tot: 12:00 waarschuwing voor: Sneeuw/IJzel/Bevriezing niveau: Geel info button
Gladheid door sneeuw en/of door bevriezing.Kans op gladheid.Alle verkeersdeelnemers kunnen hinder ondervinden.Pas uw rijgedrag aan.Volg weerberichten en waarschuwingen.



waarschuwing voor winterse neerslag Meer informatie rain snow radar


Bezoek onze andere website:

Template documentation
and downloads

And another site



METAR rapporten vliegvelden

   
EBBR - Brussels International Airport, Belgium
Afstand tot: W 14 km
Gewijzigd: Jan 25 2021 10:20 am
Grotendeels bewolkt  
Grotendeels bewolkt  
   Wind: Noorden 11 km/h
Wind: Noorden 11 km/h
Temperatuur: 1°C
Voelt als: -2°C
Dauwpunt: 0°C
Vochtigheid: 93%
Barometer: 1004 hPa
Bewolking: Grotendeels bewolkt
Zicht: 6 km
Bewolking: Gedeeltelijk bewolkt 152.4 m,
Grotendeels bewolkt 274.3 m
EBBR 250920Z 35006KT 6000 SCT005 BKN009 01/M00 Q1004 BECMG FEW007 BKN012
EBBE - Beauvechain (Bevekom), Belgium
Afstand tot: ZZO 17 km
Gewijzigd: Jan 25 2021 9:55 am
Lichte (mot)regen, Nevel, Grotendeels bewolkt  
Lichte (mot)regen, Nevel, Grotendeels bewolkt  
   Wind: Noorden 11 km/h
Wind: Noorden 11 km/h
Temperatuur: 1°C
Voelt als: -2°C
Dauwpunt: 0°C
Vochtigheid: 93%
Barometer: 1003 hPa
Bewolking: Grotendeels bewolkt
Zicht: 3 km
Bewolking: Licht bewolkt 91.4 m,
Grotendeels bewolkt 213.4 m,
Grotendeels bewolkt 274.3 m
EBBE 250855Z 36006KT 3000 -DZ BR FEW003 BKN007 BKN009 01/00 Q1003 YLO GRN TEMPO YLO
EBDT - Schaffen, Belgium
Afstand tot: ONO 29 km
Gewijzigd: Jan 25 2021 9:55 am
Wat regen mogelijk, Grotendeels bewolkt  
Wat regen mogelijk, Grotendeels bewolkt  
   Wind: Noorden 11 km/h
Wind: Noorden 11 km/h
Temperatuur: 0°C
Voelt als: -3°C
Dauwpunt: 0°C
Vochtigheid: 100%
Barometer: 1003 hPa
Bewolking: Grotendeels bewolkt
Zicht: 2 km
Bewolking: Grotendeels bewolkt 30.5 m,
Grotendeels bewolkt 91.4 m
EBDT 250855Z AUTO 35006KT 1600 -RA BKN001/// BKN003/// 00/00 Q1003 RED
EBAW - Antwerp/Deurne, Belgium
Afstand tot: NNW 38 km
Gewijzigd: Jan 25 2021 10:20 am
Grotendeels bewolkt  
Grotendeels bewolkt  
   Wind: Noorden 9 km/h
Wind: Noorden 9 km/h
Temperatuur: 1°C
Voelt als: -2°C
Dauwpunt: -1°C
Vochtigheid: 87%
Barometer: 1005 hPa
Bewolking: Grotendeels bewolkt
Zicht: meer dan 10 km
Bewolking: Grotendeels bewolkt 274.3 m,
Grotendeels bewolkt 304.8 m
EBAW 250920Z 01005KT 340V040 9999 BKN009 BKN010 01/M01 Q1005 BECMG SCT018
EBCI - Charleroi/Gosselies, Belgium
Afstand tot: ZZW 51 km
Gewijzigd: Jan 25 2021 10:20 am
Mogelijk wat sneeuw, Grotendeels bewolkt  
Mogelijk wat sneeuw, Grotendeels bewolkt  
   Wind: NW 11 km/h
Wind: NW 11 km/h
Temperatuur: 1°C
Voelt als: -2°C
Dauwpunt: -1°C
Vochtigheid: 87%
Barometer: 1003 hPa
Bewolking: Grotendeels bewolkt
Zicht: 6 km
Bewolking: Licht bewolkt 91.4 m,
Grotendeels bewolkt 121.9 m
EBCI 250920Z 32006KT 300V360 6000 -SN FEW003 BKN004 01/M01 Q1003 TEMPO 3000 -SNRA BKN004
EBLG - Bierset/Liege, Belgium
Afstand tot: OZO 60 km
Gewijzigd: Jan 25 2021 10:20 am
Freezing, Mist, Lichte (mot)sneeuw, Grotendeels bewolkt  
Freezing, Mist, Lichte (mot)sneeuw, Grotendeels bewolkt  
   Wind: NNW 9 km/h
Wind: NNW 9 km/h
Temperatuur: 0°C
Voelt als: -3°C
Dauwpunt: -1°C
Vochtigheid: 93%
Barometer: 1003 hPa
Bewolking: Grotendeels bewolkt
Zicht: 1 km
Bewolking: Grotendeels bewolkt 61 m,
Grotendeels bewolkt 91.4 m
EBLG 250920Z 34005KT 0900 R22L/1300U R22R/1200N R04R/1100D FZFG -SG BKN002 BKN003 M00/M01 Q1003 TEMPO 1600 BR -SN

Script ontwikkeld door  Saratoga-weather.org Aangepast voor de template door  Weerstation Leuven

U vindt ons ook hier:

Het Weer Aktueel

UK Metoffice

European Weather Network

WeatherCloud

Weather Underground

AWEKAS

Apparatuur in gebruik:

Weerstation
Davis VP2

Weerprogramma
Meteobridge

Weercomputer
Tl-mr3020

Webleverancier
Robohost

Davis VP2

Meteobridge

Tl-mr3020

Robohost